Latest Coastal Weather Observations for Darwin Airport

IDD60701

Issued at 3:21 am CST Tuesday 22 August 2017 (issued every 10 minutes, with the page automatically refreshed every 10 minutes)

About coastal observations | Map of coastal stations | Coastal observations for NT | Marine services | Other Formats
Station Details ID: 014015 Name: DARWIN AIRPORT Lat: -12.42 Lon: 130.89 Height: 30.4 m
Data from the previous 72 hours. | See also: Recent months at Darwin Airport
Date/Time
CST
Temp
°C
Wind Pressure Rain since
9am
mm
Weather Cloud Vis
km
Sea
Height
m
Swell
Dir  Spd
kts
Gust
kts
hPa Trend Height
m
Period
s
Dir
22/03:00am 21.9 SE 1 2 1012.5 F 0.0 Fine Clear 30 - - - -
22/02:30am 21.9 ESE 2 3 1012.6 - 0.0 - - 10 - - - -
22/02:00am 22.0 ESE 3 4 1012.8 - 0.0 - - 10 - - - -
22/01:30am 22.0 ESE 3 3 1013.0 - 0.0 - Mostly clear 10 - - - -
22/01:00am 22.5 ESE 3 3 1013.1 - 0.0 - Mostly clear 10 - - - -
22/12:30am 22.8 ESE 2 3 1013.2 - 0.0 - Mostly clear 10 - - - -
22/12:00am 22.6 E 2 3 1013.4 R 0.0 Fine Mostly clear 30 - - - -
 
Date/Time
CST
Temp
°C
Wind Pressure Rain since
9am
mm
Weather Cloud Vis
km
Sea
Height
m
Swell
Dir  Spd
kts
Gust
kts
hPa Trend Height
m
Period
s
Dir
21/11:30pm 22.7 ENE 2 3 1013.3 - 0.0 - - 10 - - - -
21/11:00pm 23.0 E 4 4 1013.3 - 0.0 - - 10 - - - -
21/10:30pm 22.8 E 3 3 1013.2 - 0.0 - - 10 - - - -
21/10:00pm 22.9 ENE 3 4 1013.0 - 0.0 - - 10 - - - -
21/09:30pm 23.3 ENE 3 4 1012.8 - 0.0 - - 10 - - - -
21/09:00pm 23.4 N 3 4 1012.4 R 0.0 Fine Clear 30 - - - -
21/08:30pm 25.6 W 2 3 1012.0 - 0.0 - - 10 - - - -
21/08:00pm 25.6 N 1 2 1011.6 - 0.0 - - 10 - - - -
21/07:30pm 26.6 N 2 3 1011.3 - 0.0 - - 10 - - - -
21/07:00pm 27.4 N 4 5 1010.9 - 0.0 - - 10 - - - -
21/06:30pm 28.3 N 6 9 1010.6 - 0.0 - - 10 - - - -
21/06:00pm 29.1 N 7 11 1010.1 F 0.0 Smoke Clear 30 - - - -
21/05:30pm 30.2 NNE 9 11 1009.8 - 0.0 - - 10 - - - -
21/05:00pm 30.5 N 10 12 1009.7 - 0.0 - - 10 - - - -
21/04:30pm 30.8 N 10 13 1009.8 - 0.0 - - 10 - - - -
21/04:00pm 31.3 N 11 14 1009.9 - 0.0 - - 10 - - - -
21/03:30pm 31.9 NNW 13 18 1010.0 - 0.0 - - 10 - - - -
21/03:00pm 30.9 NNW 12 15 1010.3 S 0.0 Smoke Clear 25 - - - -
21/02:30pm 30.6 NNW 13 16 1010.7 - 0.0 - - 10 - - - -
21/02:00pm 30.5 NNW 12 17 1011.0 - 0.0 - Mostly clear 10 - - - -
21/01:30pm 30.3 NW 11 16 1011.5 - 0.0 - Mostly clear 10 - - - -
21/01:00pm 30.6 NW 9 13 1012.2 - 0.0 - Mostly clear 10 - - - -
21/12:30pm 32.0 WNW 7 12 1012.7 - 0.0 - Partly cloudy 10 - - - -
21/12:00pm 30.8 E 5 9 1013.1 R 0.0 Smoke Mostly clear 30 - - - -
21/11:30am 30.4 ENE 6 10 1013.4 - 0.0 - Mostly clear 10 - - - -
21/11:00am 29.8 E 6 10 1013.8 - 0.0 - Mostly clear 10 - - - -
21/10:30am 29.3 E 5 11 1014.2 - 0.0 - Mostly clear 10 - - - -
21/10:00am 28.7 NE 6 9 1014.2 - 0.0 - Mostly clear 10 - - - -
21/09:30am 28.1 NE 5 9 1014.1 - 0.0 - Mostly clear 10 - - - -
21/09:00am 27.2 ENE 5 7 1013.9 R 0.0 Fine Mostly clear 25 - - - -
21/08:30am 26.8 ENE 4 5 1013.8 - 0.0 - Mostly clear 10 - - - -
21/08:00am 25.2 ENE 4 5 1013.5 - 0.0 - Mostly clear 10 - - - -
21/07:30am 22.6 E 3 4 1013.2 - 0.0 - Mostly clear 10 - - - -
21/07:00am 21.8 CALM 0 0 1012.9 - 0.0 - Mostly clear 10 - - - -
21/06:30am 22.0 NE 2 3 1012.6 - 0.0 - Mostly clear 10 - - - -
21/06:00am 21.7 NE 2 2 1012.2 F 0.0 Fine Mostly clear 25 - - - -
21/05:30am 21.8 N 3 3 1012.1 - 0.0 - - 10 - - - -
21/05:00am 22.0 N 4 4 1012.0 - 0.0 - - 10 - - - -
21/04:30am 22.6 E 2 3 1012.1 - 0.0 - - 10 - - - -
21/04:00am 22.6 ENE 3 4 1012.3 - 0.0 - Mostly clear 10 - - - -
21/03:30am 22.6 ENE 2 3 1012.3 - 0.0 - Mostly clear 10 - - - -
21/03:00am 23.1 ENE 3 4 1012.2 R 0.0 Fine Mostly clear 30 - - - -
21/02:30am 22.6 ENE 4 4 1012.1 - 0.0 - Mostly clear 10 - - - -
21/02:00am 22.7 ENE 3 4 1012.2 - 0.0 - Mostly clear 10 - - - -
21/01:30am 22.3 ENE 3 3 1012.2 - 0.0 - Mostly clear 10 - - - -
21/01:00am 22.0 NE 4 4 1012.4 - 0.0 - Mostly clear 10 - - - -
21/12:30am 22.0 NE 2 2 1012.5 - 0.0 - Mostly clear 10 - - - -
21/12:00am 22.6 CALM 0 0 1012.6 S 0.0 Fine Clear 30 - - - -
 
Date/Time
CST
Temp
°C
Wind Pressure Rain since
9am
mm
Weather Cloud Vis
km
Sea
Height
m
Swell
Dir  Spd
kts
Gust
kts
hPa Trend Height
m
Period
s
Dir
20/11:30pm 24.2 SE 3 4 1012.5 - 0.0 - - 10 - - - -
20/11:00pm 23.3 ESE 3 3 1012.3 - 0.0 - - 10 - - - -
20/10:30pm 23.6 SE 3 4 1012.2 - 0.0 - - 10 - - - -
20/10:00pm 23.4 SE 3 3 1012.0 - 0.0 - - 10 - - - -
20/09:30pm 24.4 S 2 3 1012.0 - 0.0 - - 10 - - - -
20/09:00pm 26.5 S 4 5 1011.8 F 0.0 Fine Mostly clear 30 - - - -
20/08:30pm 26.4 S 3 3 1011.6 - 0.0 - - 10 - - - -
20/08:00pm 26.0 ENE 3 5 1011.2 - 0.0 - - 10 - - - -
20/07:30pm 27.4 NNE 5 8 1010.8 - 0.0 - - 10 - - - -
20/07:00pm 27.9 NNE 8 10 1010.6 - 0.0 - - 10 - - - -
20/06:30pm 28.6 NNE 9 12 1010.3 - 0.0 - - 10 - - - -
20/06:00pm 29.7 NNE 11 14 1010.1 F 0.0 Fine Mostly clear 30 - - - -
20/05:30pm 30.7 NNE 11 15 1009.9 - 0.0 - - 10 - - - -
20/05:00pm 31.1 NNE 11 15 1009.7 - 0.0 - - 10 - - - -
20/04:30pm 31.7 N 9 13 1009.7 - 0.0 - - 10 - - - -
20/04:00pm 31.9 N 9 13 1010.0 - 0.0 - - 10 - - - -
20/03:30pm 31.9 N 10 15 1010.3 - 0.0 - - 10 - - - -
20/03:00pm 31.8 N 10 16 1010.7 F 0.0 Fine Mostly clear 30 - - - -
20/02:30pm 32.1 N 14 18 1010.9 - 0.0 - - 10 - - - -
20/02:00pm 31.9 W 9 13 1011.4 - 0.0 - Partly cloudy 10 - - - -
20/01:30pm 31.4 WNW 15 19 1012.3 - 0.0 - Mostly clear 10 - - - -
20/01:00pm 32.7 ENE 8 15 1012.6 - 0.0 - - 10 - - - -
20/12:30pm 32.9 ENE 12 18 1013.1 - 0.0 - - 10 - - - -
20/12:00pm 32.0 ENE 14 21 1013.6 F 0.0 Fine Mostly clear 30 - - - -
20/11:30am 30.7 E 12 17 1014.1 - 0.0 - - 10 - - - -
20/11:00am 30.2 ENE 10 17 1014.6 - 0.0 - - 10 - - - -
20/10:30am 29.4 E 9 14 1014.8 - 0.0 - Mostly clear 10 - - - -
20/10:00am 28.4 E 5 9 1015.0 - 0.0 - Mostly clear 10 - - - -
20/09:30am 27.2 NE 2 4 1015.0 - 0.0 - Partly cloudy 10 - - - -
20/09:00am 26.8 NE 3 5 1014.9 R 0.0 Fine Partly cloudy 30 - - - -
20/08:30am 25.8 ENE 4 5 1014.6 - 0.0 - Mostly clear 10 - - - -
20/08:00am 24.3 E 3 3 1014.3 - 0.0 - Mostly clear 10 - - - -
20/07:30am 22.5 E 2 3 1014.0 - 0.0 - Mostly clear 10 - - - -
20/07:00am 21.4 ENE 2 2 1013.6 - 0.0 - Mostly clear 10 - - - -
20/06:30am 21.0 ENE 2 3 1013.3 - 0.0 - Mostly clear 10 - - - -
20/06:00am 20.9 ENE 3 3 1012.9 F 0.0 Fine Clear 25 - - - -
20/05:30am 21.4 ENE 1 2 1012.6 - 0.0 - Mostly clear 10 - - - -
20/05:00am 21.7 NE 2 2 1012.6 - 0.0 - Mostly clear 10 - - - -
20/04:30am 21.8 NE 3 3 1012.7 - 0.0 - Mostly clear 10 - - - -
20/04:00am 22.0 CALM 0 0 1012.7 - 0.0 - Mostly clear 10 - - - -
20/03:30am 22.4 CALM 0 0 1012.8 - 0.0 - Mostly clear 10 - - - -
20/03:00am 22.5 CALM 0 0 1012.9 F 0.0 Fine Mostly clear 25 - - - -
20/02:30am 22.6 ENE 2 2 1013.0 - 0.0 - Mostly clear 10 - - - -
20/02:00am 23.0 ENE 1 2 1013.1 - 0.0 - Partly cloudy 10 - - - -
20/01:30am 23.0 ESE 1 2 1013.2 - 0.0 - Partly cloudy 10 - - - -
20/01:00am 23.0 ENE 2 2 1013.5 - 0.0 - Mostly clear 10 - - - -
20/12:30am 23.0 ENE 3 4 1013.6 - 0.0 - Mostly clear 10 - - - -
20/12:00am 23.2 CALM 0 0 1013.7 S 0.0 Fine Mostly clear 30 - - - -
 
Date/Time
CST
Temp
°C
Wind Pressure Rain since
9am
mm
Weather Cloud Vis
km
Sea
Height
m
Swell
Dir  Spd
kts
Gust
kts
hPa Trend Height
m
Period
s
Dir
19/11:30pm 23.5 N 1 2 1013.6 - 0.0 - Mostly clear 10 - - - -
19/11:00pm 24.0 NW 2 3 1013.6 - 0.0 - - 10 - - - -
19/10:30pm 24.4 SSE 1 2 1013.5 - 0.0 - - 10 - - - -
19/10:00pm 25.5 S 3 5 1013.4 - 0.0 - - 10 - - - -
19/09:30pm 26.2 S 4 5 1013.2 - 0.0 - - 10 - - - -
19/09:00pm 26.5 SSW 3 4 1012.9 R 0.0 Fine Clear 30 - - - -
19/08:30pm 26.8 SW 4 6 1012.6 - 0.0 - - 10 - - - -
19/08:00pm 26.6 WSW 4 5 1012.1 - 0.0 - - 10 - - - -
19/07:30pm 26.9 W 5 6 1011.7 - 0.0 - - 10 - - - -
19/07:00pm 27.4 W 5 6 1011.2 - 0.0 - - 10 - - - -
19/06:30pm 28.6 NW 6 8 1010.8 - 0.0 - - 10 - - - -
19/06:00pm 29.7 NW 5 8 1010.5 F 0.0 Smoke Clear 25 - - - -
19/05:30pm 30.0 N 7 10 1010.2 - 0.0 - - 10 - - - -
19/05:00pm 30.5 N 9 12 1010.3 - 0.0 - - 10 - - - -
19/04:30pm 30.6 N 10 13 1010.3 - 0.0 - - 10 - - - -
19/04:00pm 30.5 NNW 12 16 1010.5 - 0.0 - Mostly clear 10 - - - -
19/03:30pm 30.7 NNW 11 16 1010.6 - 0.0 - Mostly clear 10 - - - -
19/03:00pm 30.6 NNW 11 16 1010.8 F 0.0 Smoke Clear 25 - - - -
19/02:30pm 30.6 NW 12 15 1011.5 - 0.0 - Mostly clear 10 - - - -
19/02:00pm 31.0 WNW 11 13 1011.9 - 0.0 - Mostly clear 10 - - - -
19/01:30pm 30.6 NW 10 14 1012.3 - 0.0 - Mostly clear 10 - - - -
19/01:00pm 30.4 WNW 10 13 1013.0 - 0.0 - Mostly clear 10 - - - -
19/12:30pm 32.8 NNE 7 11 1013.6 - 0.0 - - 10 - - - -
19/12:00pm 32.2 ENE 9 16 1014.1 R 0.0 Fine Mostly clear 30 - - - -
19/11:30am 31.5 NE 11 18 1014.7 - 0.0 - - 10 - - - -
19/11:00am 30.0 W 4 8 1015.2 - 0.0 - Mostly clear 10 - - - -
19/10:30am 29.0 SE 4 10 1015.4 - 0.0 - Mostly clear 10 - - - -
19/10:00am 28.5 SE 3 5 1015.5 - 0.0 - Mostly clear 10 - - - -
19/09:30am 27.1 SW 3 5 1015.2 - 0.0 - Mostly clear 10 - - - -
19/09:00am 26.8 SE 1 3 1015.0 S 0.0 Haze Mostly clear 25 - - - -
19/08:30am 25.7 ESE 1 2 1014.7 - 0.0 - Mostly clear 10 - - - -
19/08:00am 23.8 ESE 1 2 1014.4 - 0.0 - - 10 - - - -
19/07:30am 21.6 SSE 1 2 1014.1 - 0.0 - - 10 - - - -
19/07:00am 21.0 ESE 1 2 1014.0 - 0.0 - - 10 - - - -
19/06:30am 21.4 SE 2 3 1013.7 - 0.0 - - 10 - - - -
19/06:00am 21.8 SSE 3 3 1013.4 F 0.0 Fine Clear 25 - - - -
19/05:30am 21.8 SSE 3 4 1013.2 - 0.0 - - 10 - - - -
19/05:00am 21.4 SSE 4 4 1013.1 - 0.0 - Mostly clear 10 - - - -
19/04:30am 22.0 SSE 2 3 1013.0 - 0.0 - Mostly clear 10 - - - -
19/04:00am 21.8 CALM 0 0 1013.0 - 0.0 - Mostly clear 10 - - - -
19/03:30am 22.1 CALM 0 0 1013.2 - 0.0 - Mostly clear 10 - - - -

Other Formats:

Comma delimited format used in spreadsheet applications
http://www.bom.gov.au/fwo/IDD60701/IDD60701.94120.axf

JavaScript Object Notation format (JSON) in row-major order
http://www.bom.gov.au/fwo/IDD60701/IDD60701.94120.json